Glasgow International Airport

Airport
ICAO code: 
EGPF
IATA Code: 
GLA
Summary
ICAO Region: 
EUR
Territory: 
Location: 
Paisley, Scotland
Serving: 
Glasgow
Elevation: 
26 ft
Coordinates: 
Aerial View: 
55° 52' 5.401" N, 4° 26' 8.731" W
Metar
Observation
EGPF 200950Z AUTO 23004KT 9999 NCD M01/M02 Q1039
Station
Glasgow Airport
Date/Time
2022-01-20 09:50:00
Wind direction
230°
Wind speed
04 kts
Lowest cloud amount
no clouds detected
Temperature
-1°C
Dew point
-2°C
Humidity
92%
QNH
1039 hPa
Weather condition
n/a

Description

A domestic and international airport serving the City of Glasgow and the surrounding region.

Climatology

Temperate Marine climate/Oceanic climate (Köppen climate classification Cfb). Moderately cool summer and comparatively warm winter with a temperature range of only 14°C. Prevailing south-westerly winds from the Atlantic Ocean.

Runways

Designator Length Width Surface Rops
9/27 1104 46 ASP Yes/Yes
5/23 2658 46 ASP Yes/Yes

SKYbrary Partners:

Safety knowledge contributed by: